createdAt,value
2022-10-05T00:00:55.200Z,100600.05
2022-10-05T00:03:11.040Z,100605.03
2022-10-05T00:05:34.085Z,100599.72
2022-10-05T00:06:37.626Z,100600.59
2022-10-05T00:08:51.821Z,100607.64
2022-10-05T00:11:13.368Z,100606.91
2022-10-05T00:13:30.886Z,100608.77
2022-10-05T00:15:46.942Z,100623.94
2022-10-05T00:18:04.316Z,100627.44
2022-10-05T00:20:25.566Z,100626.17
2022-10-05T00:21:29.128Z,100626.31
2022-10-05T00:22:33.665Z,100626.38
2022-10-05T00:24:51.747Z,100625.84
2022-10-05T00:28:46.101Z,100635.97
2022-10-05T00:31:02.229Z,100631.56
2022-10-05T00:33:16.359Z,100637.40
2022-10-05T00:35:34.312Z,100637.15
2022-10-05T00:36:39.394Z,100632.98
2022-10-05T00:37:43.748Z,100644.13
2022-10-05T00:39:57.922Z,100656.97
2022-10-05T00:42:51.853Z,100642.75
2022-10-05T00:45:25.861Z,100643.78
2022-10-05T00:46:38.988Z,100656.00
2022-10-05T00:49:24.593Z,100657.20
2022-10-05T00:50:40.372Z,100652.63
2022-10-05T00:53:20.313Z,100652.31
2022-10-05T00:56:04.505Z,100664.20
2022-10-05T00:57:30.576Z,100658.45
2022-10-05T01:01:28.840Z,100668.46
2022-10-05T01:05:47.903Z,100685.10
2022-10-05T01:07:19.499Z,100685.33
2022-10-05T01:10:11.000Z,100685.30
2022-10-05T01:13:03.216Z,100680.89
2022-10-05T01:15:27.535Z,100692.41
2022-10-05T01:16:51.549Z,100703.06
2022-10-05T01:21:04.865Z,100709.33
2022-10-05T01:22:28.834Z,100710.38
2022-10-05T01:23:41.822Z,100715.14
2022-10-05T01:26:27.342Z,100710.48
2022-10-05T01:29:13.054Z,100724.87
2022-10-05T01:32:03.525Z,100730.45
2022-10-05T01:34:54.916Z,100729.53
2022-10-05T01:37:28.694Z,100722.52
2022-10-05T01:40:38.799Z,100729.61
2022-10-05T01:41:58.278Z,100729.48
2022-10-05T01:43:29.693Z,100736.41
2022-10-05T01:46:13.159Z,100742.07
2022-10-05T01:47:26.456Z,100734.78
2022-10-05T01:51:23.705Z,100741.38
2022-10-05T01:52:53.792Z,100748.57
2022-10-05T01:55:27.732Z,100755.87
2022-10-05T01:56:43.871Z,100750.07
2022-10-05T01:59:12.440Z,100764.12
2022-10-05T02:01:55.185Z,100764.67
2022-10-05T02:03:05.436Z,100767.27
2022-10-05T02:06:47.453Z,100760.79
2022-10-05T02:08:03.687Z,100766.84
2022-10-05T02:10:40.531Z,100770.09
2022-10-05T02:13:02.276Z,100781.12
2022-10-05T02:14:11.291Z,100778.02
2022-10-05T02:16:41.410Z,100783.42
2022-10-05T02:19:24.497Z,100789.28
2022-10-05T02:21:45.025Z,100795.97
2022-10-05T02:24:19.127Z,100792.14
2022-10-05T02:26:40.036Z,100805.49
2022-10-05T02:29:18.354Z,100804.89
2022-10-05T02:33:03.992Z,100805.39
2022-10-05T02:35:39.412Z,100805.23
2022-10-05T02:36:43.472Z,100818.06
2022-10-05T02:38:05.644Z,100816.01
2022-10-05T02:40:30.396Z,100820.92
2022-10-05T02:41:55.358Z,100814.56
2022-10-05T02:43:20.237Z,100823.86
2022-10-05T02:45:59.519Z,100819.98
2022-10-05T02:47:12.068Z,100824.27
2022-10-05T02:50:09.807Z,100825.11
2022-10-05T02:52:34.550Z,100823.30
2022-10-05T02:54:04.134Z,100826.81
2022-10-05T02:56:38.489Z,100828.12
2022-10-05T02:59:18.332Z,100832.78
2022-10-05T03:01:45.048Z,100824.08
2022-10-05T03:02:55.156Z,100814.68
2022-10-05T03:05:42.912Z,100818.78
2022-10-05T03:08:16.683Z,100827.45
2022-10-05T03:10:54.126Z,100819.89
2022-10-05T03:13:27.427Z,100831.56
2022-10-05T03:16:18.971Z,100822.09
2022-10-05T03:18:51.956Z,100823.36
2022-10-05T03:21:40.483Z,100832.51
2022-10-05T03:22:53.518Z,100823.14
2022-10-05T03:25:26.752Z,100829.46
2022-10-05T03:29:37.356Z,100837.72
2022-10-05T03:32:26.876Z,100852.92
2022-10-05T03:35:05.254Z,100862.05
2022-10-05T03:39:00.947Z,100870.34
2022-10-05T03:41:35.287Z,100873.50
2022-10-05T03:46:04.450Z,100854.09
2022-10-05T03:47:17.859Z,100855.75
2022-10-05T03:49:54.742Z,100865.61
2022-10-05T03:52:46.719Z,100863.52
2022-10-05T03:56:43.644Z,100862.08
2022-10-05T03:57:49.605Z,100871.52
2022-10-05T04:03:16.440Z,100871.59
2022-10-05T04:05:50.576Z,100872.56
2022-10-05T04:06:55.890Z,100872.95
2022-10-05T04:10:53.676Z,100878.19
2022-10-05T04:14:42.086Z,100880.47
2022-10-05T04:17:12.946Z,100878.95
2022-10-05T04:19:43.628Z,100881.39
2022-10-05T04:22:22.342Z,100890.06
2022-10-05T04:24:49.455Z,100880.33
2022-10-05T04:27:14.035Z,100877.97
2022-10-05T04:28:38.991Z,100882.44
2022-10-05T04:31:17.953Z,100885.56
2022-10-05T04:34:00.052Z,100890.49
2022-10-05T04:35:36.005Z,100892.61
2022-10-05T04:38:32.980Z,100896.33
2022-10-05T04:41:31.346Z,100892.96
2022-10-05T04:42:38.360Z,100896.27
2022-10-05T04:45:22.729Z,100899.42
2022-10-05T04:48:11.918Z,100896.50
2022-10-05T04:51:22.824Z,100898.91
2022-10-05T04:54:22.576Z,100904.72
2022-10-05T05:00:04.334Z,100929.82
2022-10-05T05:02:49.909Z,100926.84
2022-10-05T05:07:11.724Z,100937.42
2022-10-05T05:10:15.980Z,100943.09
2022-10-05T05:14:36.337Z,100950.55
2022-10-05T05:17:33.347Z,100954.27
2022-10-05T05:20:22.776Z,100958.58
2022-10-05T05:23:24.965Z,100967.85
2022-10-05T05:26:04.919Z,100972.13
2022-10-05T05:30:32.564Z,100986.68
2022-10-05T05:35:14.528Z,100978.39
2022-10-05T05:37:51.484Z,100980.39
2022-10-05T05:40:33.875Z,100980.58
2022-10-05T05:42:56.112Z,100992.02
2022-10-05T05:45:45.532Z,100994.05
2022-10-05T05:50:07.460Z,100998.95
2022-10-05T05:52:28.949Z,100986.88
2022-10-05T05:56:23.480Z,100998.38
2022-10-05T05:59:00.744Z,100998.95
2022-10-05T06:01:40.724Z,100999.33
2022-10-05T06:04:22.499Z,101013.05
2022-10-05T06:06:59.725Z,101010.58
2022-10-05T06:09:53.893Z,101016.47
2022-10-05T06:12:21.685Z,101029.80
2022-10-05T06:16:32.105Z,101021.25
2022-10-05T06:19:11.851Z,101023.61
2022-10-05T06:23:20.790Z,101034.62
2022-10-05T06:26:09.759Z,101039.41
2022-10-05T06:28:40.884Z,101048.66
2022-10-05T06:33:32.638Z,101053.41
2022-10-05T06:36:24.781Z,101053.28
2022-10-05T06:39:02.480Z,101049.50
2022-10-05T06:41:42.216Z,101047.31
2022-10-05T06:43:04.126Z,101059.59
2022-10-05T06:45:44.389Z,101053.20
2022-10-05T06:48:38.364Z,101054.63
2022-10-05T06:51:28.453Z,101051.13
2022-10-05T06:54:20.799Z,101049.76
2022-10-05T06:57:06.138Z,101065.29
2022-10-05T07:00:19.794Z,101065.47
2022-10-05T07:04:36.932Z,101061.64
2022-10-05T07:07:30.298Z,101064.83
2022-10-05T07:08:44.395Z,101058.70
2022-10-05T07:11:54.678Z,101065.62
2022-10-05T07:14:38.737Z,101069.98
2022-10-05T07:17:46.957Z,101072.91
2022-10-05T07:20:30.248Z,101074.31
2022-10-05T07:25:56.658Z,101084.91
2022-10-05T07:28:36.250Z,101092.47
2022-10-05T07:31:12.822Z,101093.57
2022-10-05T07:35:20.100Z,101100.88
2022-10-05T07:37:57.991Z,101103.31
2022-10-05T07:40:41.533Z,101107.53
2022-10-05T07:43:22.127Z,101112.63
2022-10-05T07:45:59.424Z,101103.80
2022-10-05T07:50:03.926Z,101120.94
2022-10-05T07:52:37.082Z,101117.48
2022-10-05T07:54:59.573Z,101120.97
2022-10-05T07:57:48.717Z,101124.86
2022-10-05T08:01:25.942Z,101123.11
2022-10-05T08:04:13.001Z,101127.56
2022-10-05T08:06:53.615Z,101121.31
2022-10-05T08:10:52.412Z,101103.28
2022-10-05T08:13:20.068Z,101101.16
2022-10-05T08:15:43.715Z,101104.13
2022-10-05T08:19:26.631Z,101110.10
2022-10-05T08:22:07.240Z,101096.91
2022-10-05T08:23:18.887Z,101096.86
2022-10-05T08:25:46.363Z,101095.66
2022-10-05T08:29:54.946Z,101105.76
2022-10-05T08:32:22.489Z,101099.99
2022-10-05T08:34:51.892Z,101104.23
2022-10-05T08:37:19.525Z,101108.01
2022-10-05T08:40:07.743Z,101114.00
2022-10-05T08:42:58.553Z,101118.27
2022-10-05T08:46:02.781Z,101128.78
2022-10-05T08:48:57.830Z,101127.97
2022-10-05T08:51:49.706Z,101125.55
2022-10-05T08:54:39.649Z,101131.46
2022-10-05T09:02:01.109Z,101136.36
2022-10-05T09:05:10.483Z,101130.47
2022-10-05T09:08:30.564Z,101139.45
2022-10-05T09:13:24.873Z,101142.13
2022-10-05T09:15:58.714Z,101147.05
2022-10-05T09:17:22.575Z,101143.16
2022-10-05T09:20:05.695Z,101151.87
2022-10-05T09:21:30.625Z,101156.87
2022-10-05T09:23:50.926Z,101156.69
2022-10-05T09:26:33.943Z,101163.92
2022-10-05T09:29:10.213Z,101157.88
2022-10-05T09:32:00.340Z,101148.39
2022-10-05T09:33:36.319Z,101152.19
2022-10-05T09:38:08.704Z,101149.44
2022-10-05T09:41:05.397Z,101136.20
2022-10-05T09:43:53.045Z,101146.36
2022-10-05T09:46:56.615Z,101150.64
2022-10-05T09:55:40.245Z,101161.20
2022-10-05T09:58:57.528Z,101151.77
2022-10-05T10:01:33.683Z,101152.61
2022-10-05T10:04:15.167Z,101156.95
2022-10-05T10:08:09.305Z,101152.30
2022-10-05T10:12:40.566Z,101159.73
2022-10-05T10:15:34.134Z,101160.95
2022-10-05T10:19:14.597Z,101157.24
2022-10-05T10:22:07.525Z,101168.48
2022-10-05T10:25:22.595Z,101161.48
2022-10-05T10:28:17.991Z,101166.27
2022-10-05T10:31:03.005Z,101167.12
2022-10-05T10:34:11.918Z,101158.73
2022-10-05T10:36:49.625Z,101163.73
2022-10-05T10:41:05.976Z,101158.81
2022-10-05T10:44:00.109Z,101172.86
2022-10-05T10:46:58.297Z,101170.39
2022-10-05T10:51:21.196Z,101156.34
2022-10-05T10:54:06.053Z,101162.03
2022-10-05T10:59:57.220Z,101155.26
2022-10-05T11:02:22.632Z,101149.02
2022-10-05T11:04:53.071Z,101152.26
2022-10-05T11:07:37.164Z,101153.75
2022-10-05T11:10:33.378Z,101159.70
2022-10-05T11:14:54.360Z,101156.98
2022-10-05T11:17:46.797Z,101160.47
2022-10-05T11:21:00.569Z,101147.92
2022-10-05T11:23:51.377Z,101145.66
2022-10-05T11:26:52.572Z,101147.05
2022-10-05T11:29:59.215Z,101134.70
2022-10-05T11:35:14.534Z,101140.12
2022-10-05T11:38:03.624Z,101133.16
2022-10-05T11:40:52.918Z,101136.52
2022-10-05T11:44:04.606Z,101143.16
2022-10-05T11:46:44.878Z,101144.02
2022-10-05T11:49:54.108Z,101148.48
2022-10-05T11:52:41.507Z,101151.98
2022-10-05T11:55:16.455Z,101142.13
2022-10-05T11:59:12.270Z,101138.05
2022-10-05T12:00:19.236Z,101148.25
2022-10-05T12:03:21.710Z,101143.16
2022-10-05T12:06:04.810Z,101139.95
2022-10-05T12:13:12.231Z,101163.05
2022-10-05T12:16:04.683Z,101167.78
2022-10-05T12:18:54.748Z,101164.75
2022-10-05T12:24:03.571Z,101175.94
2022-10-05T12:26:50.466Z,101177.61
2022-10-05T12:29:37.057Z,101175.17
2022-10-05T12:30:57.928Z,101193.47
2022-10-05T12:33:22.531Z,101197.48
2022-10-05T12:36:20.912Z,101191.83
2022-10-05T12:40:34.750Z,101191.09
2022-10-05T12:43:22.824Z,101206.36
2022-10-05T12:47:40.702Z,101205.41
2022-10-05T12:50:19.776Z,101205.23
2022-10-05T12:53:09.177Z,101209.09
2022-10-05T12:56:02.489Z,101209.59
2022-10-05T13:00:11.363Z,101200.80
2022-10-05T13:02:58.235Z,101204.93
2022-10-05T13:05:41.977Z,101208.81
2022-10-05T13:08:06.933Z,101209.70
2022-10-05T13:11:01.818Z,101216.77
2022-10-05T13:13:48.472Z,101212.81
2022-10-05T13:16:30.462Z,101218.11
2022-10-05T13:18:58.167Z,101220.95
2022-10-05T13:21:20.275Z,101221.16
2022-10-05T13:25:33.618Z,101225.58
2022-10-05T13:29:43.971Z,101213.09
2022-10-05T13:32:15.028Z,101210.68
2022-10-05T13:36:06.789Z,101215.24
2022-10-05T13:38:52.901Z,101219.53
2022-10-05T13:41:40.782Z,101216.30
2022-10-05T13:44:15.638Z,101213.20
2022-10-05T13:48:05.963Z,101207.50
2022-10-05T13:53:50.554Z,101217.52
2022-10-05T13:56:38.166Z,101210.41
2022-10-05T14:00:57.532Z,101229.19
2022-10-05T14:03:27.798Z,101226.22
2022-10-05T14:06:13.525Z,101232.09
2022-10-05T14:08:50.059Z,101225.88
2022-10-05T14:11:24.752Z,101231.61
2022-10-05T14:13:47.096Z,101234.84
2022-10-05T14:16:24.476Z,101240.49
2022-10-05T14:19:05.885Z,101239.08
2022-10-05T14:21:43.802Z,101230.28
2022-10-05T14:24:50.480Z,101230.63
2022-10-05T14:27:23.817Z,101225.87
2022-10-05T14:29:42.065Z,101217.03
2022-10-05T14:32:15.106Z,101218.94
2022-10-05T14:34:35.786Z,101218.69
2022-10-05T14:37:20.791Z,101216.57
2022-10-05T14:39:41.965Z,101215.07
2022-10-05T14:42:00.688Z,101218.46
2022-10-05T14:43:19.355Z,101219.25
2022-10-05T14:45:58.077Z,101225.41
2022-10-05T14:48:44.732Z,101217.33
2022-10-05T14:51:26.179Z,101234.52
2022-10-05T14:52:30.793Z,101223.02
2022-10-05T14:55:13.439Z,101219.95
2022-10-05T14:56:32.246Z,101219.63
2022-10-05T14:59:18.338Z,101218.44
2022-10-05T15:01:34.696Z,101221.55
2022-10-05T15:04:14.918Z,101228.63
2022-10-05T15:06:42.855Z,101230.64
2022-10-05T15:07:49.060Z,101218.23
2022-10-05T15:10:26.859Z,101228.89
2022-10-05T15:13:18.624Z,101229.63
2022-10-05T15:15:45.864Z,101224.56
2022-10-05T15:17:01.575Z,101231.97
2022-10-05T15:19:45.608Z,101227.27
2022-10-05T15:22:54.199Z,101228.61
2022-10-05T15:26:49.229Z,101237.23
2022-10-05T15:28:14.216Z,101231.25
2022-10-05T15:31:30.889Z,101235.33
2022-10-05T15:34:13.313Z,101239.36
2022-10-05T15:37:13.360Z,101241.70
2022-10-05T15:38:25.296Z,101247.16
2022-10-05T15:40:58.646Z,101236.34
2022-10-05T15:43:21.316Z,101235.81
2022-10-05T15:51:00.932Z,101223.84
2022-10-05T15:52:16.883Z,101227.79
2022-10-05T15:55:30.995Z,101241.13
2022-10-05T15:58:09.670Z,101257.23
2022-10-05T16:01:54.842Z,101264.02
2022-10-05T16:03:16.908Z,101263.70
2022-10-05T16:05:47.633Z,101269.09
2022-10-05T16:10:51.555Z,101269.78
2022-10-05T16:12:10.209Z,101260.36
2022-10-05T16:14:56.199Z,101262.98
2022-10-05T16:18:49.623Z,101266.44
2022-10-05T16:20:21.069Z,101270.25
2022-10-05T16:23:13.410Z,101269.95
2022-10-05T16:30:54.711Z,101266.40
2022-10-05T16:31:59.605Z,101267.00
2022-10-05T16:34:48.522Z,101261.85
2022-10-05T16:37:34.223Z,101259.30
2022-10-05T16:40:08.636Z,101250.84
2022-10-05T16:45:46.619Z,101252.91
2022-10-05T16:48:26.339Z,101253.97
2022-10-05T16:51:24.731Z,101241.28
2022-10-05T16:53:47.068Z,101241.65
2022-10-05T16:57:30.309Z,101253.71
2022-10-05T17:00:25.439Z,101251.16
2022-10-05T17:02:01.793Z,101254.20
2022-10-05T17:04:28.801Z,101253.66
2022-10-05T17:07:30.981Z,101254.05
2022-10-05T17:08:49.960Z,101250.55
2022-10-05T17:11:32.113Z,101253.16
2022-10-05T17:14:16.828Z,101251.91
2022-10-05T17:16:53.809Z,101256.16
2022-10-05T17:18:27.154Z,101257.65
2022-10-05T17:21:14.890Z,101261.61
2022-10-05T17:24:12.853Z,101261.91
2022-10-05T17:26:43.584Z,101268.45
2022-10-05T17:29:32.467Z,101261.81
2022-10-05T17:32:09.519Z,101268.84
2022-10-05T17:36:18.095Z,101270.47
2022-10-05T17:37:31.287Z,101275.90
2022-10-05T17:39:58.162Z,101270.25
2022-10-05T17:41:26.034Z,101267.70
2022-10-05T17:42:33.090Z,101263.30
2022-10-05T17:43:36.626Z,101268.10
2022-10-05T17:45:54.794Z,101264.41
2022-10-05T17:48:16.504Z,101266.10
2022-10-05T17:50:57.577Z,101259.56
2022-10-05T17:52:21.194Z,101258.91
2022-10-05T17:55:01.408Z,101262.41
2022-10-05T17:56:05.323Z,101266.50
2022-10-05T17:58:27.444Z,101256.11
2022-10-05T18:01:19.152Z,101257.75
2022-10-05T18:02:37.050Z,101261.16
2022-10-05T18:05:13.079Z,101257.45
2022-10-05T18:07:42.292Z,101251.81
2022-10-05T18:10:14.196Z,101254.00
2022-10-05T18:13:00.214Z,101248.53
2022-10-05T18:22:00.870Z,101252.00
2022-10-05T18:23:07.891Z,101251.81
2022-10-05T18:25:49.796Z,101256.94
2022-10-05T18:27:13.311Z,101257.61
2022-10-05T18:28:20.345Z,101257.61
2022-10-05T18:31:39.597Z,101261.49
2022-10-05T18:34:37.740Z,101261.89
2022-10-05T18:37:37.817Z,101259.03
2022-10-05T18:39:11.035Z,101261.49
2022-10-05T18:41:58.422Z,101262.61
2022-10-05T18:46:08.383Z,101256.66
2022-10-05T18:47:18.426Z,101258.26
2022-10-05T18:50:19.632Z,101261.26
2022-10-05T18:52:56.461Z,101263.36
2022-10-05T18:55:27.321Z,101253.05
2022-10-05T18:58:07.770Z,101260.80
2022-10-05T19:01:38.464Z,101260.67
2022-10-05T19:04:25.188Z,101256.70
2022-10-05T19:07:09.417Z,101257.30
2022-10-05T19:08:31.778Z,101258.39
2022-10-05T19:09:53.519Z,101254.84
2022-10-05T19:13:45.341Z,101259.64
2022-10-05T19:17:48.556Z,101254.39
2022-10-05T19:20:57.448Z,101250.70
2022-10-05T19:25:21.838Z,101248.26
2022-10-05T19:26:51.585Z,101245.75
2022-10-05T19:29:51.393Z,101247.48
2022-10-05T19:32:45.358Z,101247.31
2022-10-05T19:34:07.807Z,101249.05
2022-10-05T19:35:17.733Z,101249.61
2022-10-05T19:37:53.949Z,101258.13
2022-10-05T19:40:34.001Z,101253.87
2022-10-05T19:44:45.226Z,101270.47
2022-10-05T19:46:10.818Z,101275.72
2022-10-05T19:47:30.396Z,101274.88
2022-10-05T19:49:58.121Z,101271.88
2022-10-05T19:52:28.360Z,101269.19
2022-10-05T19:54:49.595Z,101285.91
2022-10-05T19:57:07.905Z,101284.23
2022-10-05T19:58:29.244Z,101290.32
2022-10-05T20:02:01.514Z,101288.73
2022-10-05T20:03:20.868Z,101290.17
2022-10-05T20:07:13.002Z,101292.08
2022-10-05T20:09:50.574Z,101292.58
2022-10-05T20:12:50.451Z,101291.86
2022-10-05T20:15:19.883Z,101275.24
2022-10-05T20:16:31.416Z,101277.13
2022-10-05T20:18:47.899Z,101270.36
2022-10-05T20:21:02.017Z,101262.19
2022-10-05T20:22:32.129Z,101262.97
2022-10-05T20:23:35.519Z,101262.67
2022-10-05T20:26:01.804Z,101252.70
2022-10-05T20:27:05.493Z,101249.48
2022-10-05T20:29:20.091Z,101238.46
2022-10-05T20:31:39.203Z,101232.70
2022-10-05T20:32:42.759Z,101239.28
2022-10-05T20:34:57.486Z,101235.81
2022-10-05T20:37:14.648Z,101244.05
2022-10-05T20:39:29.174Z,101233.81
2022-10-05T20:41:44.742Z,101237.55
2022-10-05T20:42:48.166Z,101241.41
2022-10-05T20:45:03.839Z,101234.27
2022-10-05T20:47:18.100Z,101235.09
2022-10-05T20:48:21.517Z,101234.70
2022-10-05T20:49:25.603Z,101235.02
2022-10-05T20:51:39.963Z,101239.09
2022-10-05T20:52:43.339Z,101241.39
2022-10-05T20:53:46.877Z,101244.94
2022-10-05T20:56:01.369Z,101237.08
2022-10-05T20:57:05.456Z,101243.08
2022-10-05T20:59:20.383Z,101249.16
2022-10-05T21:01:34.816Z,101246.60
2022-10-05T21:03:49.430Z,101244.92
2022-10-05T21:06:03.915Z,101256.66
2022-10-05T21:07:07.340Z,101246.67
2022-10-05T21:08:10.830Z,101245.16
2022-10-05T21:10:26.990Z,101244.46
2022-10-05T21:12:41.203Z,101245.70
2022-10-05T21:13:44.555Z,101243.23
2022-10-05T21:15:58.880Z,101242.45
2022-10-05T21:17:02.808Z,101239.74
2022-10-05T21:18:06.421Z,101232.02
2022-10-05T21:20:22.585Z,101243.31
2022-10-05T21:21:25.981Z,101245.95
2022-10-05T21:22:29.628Z,101248.55
2022-10-05T21:23:33.984Z,101257.50
2022-10-05T21:25:49.900Z,101265.10
2022-10-05T21:28:04.261Z,101258.45
2022-10-05T21:30:19.652Z,101245.91
2022-10-05T21:32:34.041Z,101241.14
2022-10-05T21:34:48.420Z,101244.63
2022-10-05T21:37:02.918Z,101240.38
2022-10-05T21:38:06.245Z,101239.36
2022-10-05T21:39:10.059Z,101230.16
2022-10-05T21:40:13.629Z,101229.34
2022-10-05T21:42:28.662Z,101228.08
2022-10-05T21:44:42.691Z,101232.63
2022-10-05T21:46:57.614Z,101235.55
2022-10-05T21:48:01.061Z,101230.91
2022-10-05T21:49:08.238Z,101230.55
2022-10-05T21:51:25.058Z,101225.22
2022-10-05T21:53:43.375Z,101238.81
2022-10-05T21:56:02.775Z,101231.81
2022-10-05T21:57:04.380Z,101237.91
2022-10-05T21:58:08.071Z,101236.27
2022-10-05T22:00:25.570Z,101251.91
2022-10-05T22:01:28.968Z,101250.73
2022-10-05T22:02:32.541Z,101247.06
2022-10-05T22:04:46.752Z,101252.51
2022-10-05T22:07:00.876Z,101246.36
2022-10-05T22:09:15.106Z,101252.51
2022-10-05T22:10:18.573Z,101247.78
2022-10-05T22:12:33.279Z,101248.21
2022-10-05T22:13:48.518Z,101257.39
2022-10-05T22:16:02.939Z,101249.59
2022-10-05T22:18:27.283Z,101245.11
2022-10-05T22:19:30.971Z,101247.22
2022-10-05T22:21:45.954Z,101239.34
2022-10-05T22:22:50.023Z,101234.82
2022-10-05T22:25:05.120Z,101232.10
2022-10-05T22:26:11.363Z,101231.69
2022-10-05T22:28:27.878Z,101225.45
2022-10-05T22:29:31.754Z,101238.97
2022-10-05T22:31:47.398Z,101230.89
2022-10-05T22:32:50.754Z,101229.75
2022-10-05T22:35:09.231Z,101231.89
2022-10-05T22:37:22.748Z,101219.55
2022-10-05T22:38:27.034Z,101216.66
2022-10-05T22:40:41.534Z,101227.50
2022-10-05T22:41:44.970Z,101224.66
2022-10-05T22:42:48.473Z,101215.71
2022-10-05T22:45:03.232Z,101221.17
2022-10-05T22:46:08.553Z,101222.10
2022-10-05T22:48:22.845Z,101226.16
2022-10-05T22:50:37.389Z,101217.41
2022-10-05T22:51:40.917Z,101214.08
2022-10-05T22:52:44.386Z,101218.00
2022-10-05T22:54:58.777Z,101217.92
2022-10-05T22:56:10.915Z,101210.86
2022-10-05T22:57:14.691Z,101204.59
2022-10-05T22:59:28.915Z,101217.83
2022-10-05T23:00:56.419Z,101204.73
2022-10-05T23:02:48.847Z,101216.73
2022-10-05T23:03:52.145Z,101221.32
2022-10-05T23:04:55.672Z,101211.27
2022-10-05T23:07:12.855Z,101208.93
2022-10-05T23:09:27.088Z,101210.33
2022-10-05T23:11:41.460Z,101205.78
2022-10-05T23:13:59.519Z,101205.58
2022-10-05T23:16:18.327Z,101205.98
2022-10-05T23:17:21.770Z,101205.73
2022-10-05T23:18:25.687Z,101209.88
2022-10-05T23:20:40.414Z,101196.79
2022-10-05T23:21:44.385Z,101195.64
2022-10-05T23:22:47.909Z,101196.44
2022-10-05T23:25:03.804Z,101197.48
2022-10-05T23:27:20.814Z,101192.84
2022-10-05T23:28:24.312Z,101190.81
2022-10-05T23:31:03.875Z,101188.25
2022-10-05T23:33:18.519Z,101194.39
2022-10-05T23:34:21.878Z,101194.73
2022-10-05T23:36:36.024Z,101193.24
2022-10-05T23:38:52.808Z,101192.66
2022-10-05T23:39:56.212Z,101190.89
2022-10-05T23:42:16.958Z,101194.73
2022-10-05T23:43:20.238Z,101196.28
2022-10-05T23:45:35.454Z,101199.05
2022-10-05T23:46:38.893Z,101204.93
2022-10-05T23:48:53.257Z,101205.94
2022-10-05T23:51:10.465Z,101203.09
2022-10-05T23:52:13.804Z,101196.89
2022-10-05T23:54:29.000Z,101201.19
2022-10-05T23:55:32.555Z,101208.47
2022-10-05T23:57:47.229Z,101198.94
